createdAt,value
2022-11-17T00:01:44.435Z,10.73
2022-11-17T00:04:31.283Z,11.43
2022-11-17T00:07:17.828Z,12.93
2022-11-17T00:10:06.922Z,14.50
2022-11-17T00:13:11.064Z,12.47
2022-11-17T00:15:57.919Z,12.93
2022-11-17T00:19:02.498Z,10.57
2022-11-17T00:21:49.191Z,11.53
2022-11-17T00:24:36.286Z,13.10
2022-11-17T00:27:24.293Z,9.77
2022-11-17T00:30:31.669Z,13.80
2022-11-17T00:33:50.056Z,11.20
2022-11-17T00:36:39.525Z,9.83
2022-11-17T00:39:26.085Z,12.30
2022-11-17T00:42:13.076Z,8.90
2022-11-17T00:45:00.831Z,15.50
2022-11-17T00:47:47.566Z,12.63
2022-11-17T00:50:34.451Z,10.23
2022-11-17T00:53:21.279Z,8.90
2022-11-17T00:56:08.870Z,12.07
2022-11-17T00:58:55.879Z,12.07
2022-11-17T01:01:44.654Z,11.43
2022-11-17T01:04:31.359Z,11.00
2022-11-17T01:07:18.067Z,9.67
2022-11-17T01:10:05.153Z,8.90
2022-11-17T01:12:51.860Z,14.53
2022-11-17T01:15:38.770Z,9.83
2022-11-17T01:18:26.919Z,9.20
2022-11-17T01:21:16.589Z,14.57
2022-11-17T01:24:03.617Z,9.53
2022-11-17T01:26:51.911Z,8.13
2022-11-17T01:29:38.526Z,8.60
2022-11-17T01:32:25.221Z,10.63
2022-11-17T01:35:13.428Z,9.37
2022-11-17T01:38:00.306Z,8.27
2022-11-17T01:40:47.096Z,9.77
2022-11-17T01:43:44.954Z,8.73
2022-11-17T01:46:34.200Z,9.57
2022-11-17T01:49:24.066Z,7.20
2022-11-17T01:52:13.362Z,8.03
2022-11-17T01:55:01.694Z,7.53
2022-11-17T01:57:52.328Z,9.87
2022-11-17T02:00:39.084Z,6.80
2022-11-17T02:03:27.399Z,9.10
2022-11-17T02:06:21.794Z,13.67
2022-11-17T02:09:10.405Z,8.87
2022-11-17T02:11:59.938Z,11.50
2022-11-17T02:14:47.284Z,14.00
2022-11-17T02:17:37.611Z,9.50
2022-11-17T02:20:41.520Z,8.83
2022-11-17T02:23:57.334Z,9.93
2022-11-17T02:27:39.927Z,7.70
2022-11-17T02:30:34.035Z,8.17
2022-11-17T02:33:31.622Z,11.90
2022-11-17T02:36:21.959Z,10.67
2022-11-17T02:39:16.208Z,11.57
2022-11-17T02:42:09.401Z,10.63
2022-11-17T02:45:00.579Z,7.77
2022-11-17T02:47:54.712Z,11.17
2022-11-17T02:50:44.036Z,11.50
2022-11-17T02:53:32.020Z,12.50
2022-11-17T02:56:18.870Z,10.83
2022-11-17T02:59:06.771Z,8.73
2022-11-17T03:02:29.690Z,10.90
2022-11-17T03:05:24.253Z,7.27
2022-11-17T03:08:24.296Z,7.73
2022-11-17T03:11:12.662Z,10.70
2022-11-17T03:14:09.438Z,13.47
2022-11-17T03:17:02.425Z,12.33
2022-11-17T03:19:56.719Z,7.07
2022-11-17T03:22:52.270Z,11.00
2022-11-17T03:25:39.575Z,11.63
2022-11-17T03:28:30.623Z,10.87
2022-11-17T03:31:20.164Z,8.67
2022-11-17T03:34:11.235Z,8.23
2022-11-17T03:37:03.019Z,8.63
2022-11-17T03:39:54.416Z,7.17
2022-11-17T03:42:46.275Z,10.53
2022-11-17T03:45:35.742Z,10.47
2022-11-17T03:48:29.460Z,10.30
2022-11-17T03:51:19.612Z,12.40
2022-11-17T03:54:07.581Z,10.77
2022-11-17T03:57:03.194Z,13.03
2022-11-17T03:59:56.968Z,8.17
2022-11-17T04:02:44.887Z,10.87
2022-11-17T04:05:31.742Z,11.00
2022-11-17T04:08:19.832Z,10.03
2022-11-17T04:11:24.421Z,13.73
2022-11-17T04:14:30.006Z,8.10
2022-11-17T04:17:16.821Z,13.77
2022-11-17T04:20:03.531Z,10.03
2022-11-17T04:23:07.261Z,10.93
2022-11-17T04:26:12.502Z,11.53
2022-11-17T04:28:59.208Z,12.37
2022-11-17T04:31:47.284Z,11.23
2022-11-17T04:34:34.219Z,9.37
2022-11-17T04:37:20.891Z,10.47
2022-11-17T04:40:09.324Z,14.70
2022-11-17T04:42:55.239Z,10.47
2022-11-17T04:45:42.090Z,12.87
2022-11-17T04:48:30.255Z,11.30
2022-11-17T04:51:18.240Z,9.83
2022-11-17T04:54:07.100Z,14.47
2022-11-17T04:56:55.740Z,10.53
2022-11-17T04:59:42.281Z,10.90
2022-11-17T05:02:29.021Z,7.17
2022-11-17T05:05:17.268Z,10.77
2022-11-17T05:08:04.069Z,13.53
2022-11-17T05:11:08.167Z,12.37
2022-11-17T05:13:54.963Z,12.03
2022-11-17T05:17:03.236Z,10.30
2022-11-17T05:19:53.959Z,14.50
2022-11-17T05:23:05.354Z,12.00
2022-11-17T05:25:54.871Z,15.10
2022-11-17T05:28:41.407Z,12.37
2022-11-17T05:31:29.508Z,16.00
2022-11-17T05:34:18.390Z,11.07
2022-11-17T05:37:04.929Z,18.20
2022-11-17T05:39:53.136Z,15.57
2022-11-17T05:42:39.809Z,15.97
2022-11-17T05:45:26.593Z,13.37
2022-11-17T05:48:13.461Z,17.70
2022-11-17T05:51:00.212Z,17.13
2022-11-17T05:53:46.814Z,14.43
2022-11-17T05:56:38.391Z,19.60
2022-11-17T05:59:29.070Z,14.60
2022-11-17T06:02:19.499Z,15.53
2022-11-17T06:05:06.735Z,12.57
2022-11-17T06:07:54.965Z,14.40
2022-11-17T06:10:41.534Z,15.93
2022-11-17T06:13:29.767Z,19.47
2022-11-17T06:16:19.464Z,18.83
2022-11-17T06:19:10.332Z,13.40
2022-11-17T06:22:11.531Z,13.97
2022-11-17T06:25:00.607Z,18.70
2022-11-17T06:27:48.886Z,17.67
2022-11-17T06:30:38.112Z,12.27
2022-11-17T06:33:26.078Z,15.27
2022-11-17T06:36:13.069Z,16.50
2022-11-17T06:38:59.729Z,17.30
2022-11-17T06:41:46.256Z,17.20
2022-11-17T06:44:33.032Z,18.43
2022-11-17T06:47:21.218Z,30.20
2022-11-17T06:50:08.734Z,26.43
2022-11-17T06:52:58.235Z,14.07
2022-11-17T06:55:49.073Z,19.03
2022-11-17T06:58:37.041Z,17.87
2022-11-17T07:01:24.240Z,17.87
2022-11-17T07:04:12.212Z,17.23
2022-11-17T07:06:58.989Z,16.57
2022-11-17T07:09:45.754Z,14.60
2022-11-17T07:12:32.460Z,13.50
2022-11-17T07:15:19.301Z,16.70
2022-11-17T07:18:06.239Z,13.70
2022-11-17T07:20:54.535Z,20.50
2022-11-17T07:23:42.197Z,15.17
2022-11-17T07:26:28.969Z,15.40
2022-11-17T07:29:15.848Z,15.67
2022-11-17T07:32:02.654Z,14.33
2022-11-17T07:34:49.790Z,15.80
2022-11-17T07:37:37.918Z,16.07
2022-11-17T07:40:24.694Z,14.27
2022-11-17T07:43:11.426Z,15.13
2022-11-17T07:45:58.238Z,14.60
2022-11-17T07:48:46.230Z,17.17
2022-11-17T07:51:32.966Z,17.53
2022-11-17T07:54:21.058Z,15.23
2022-11-17T07:57:07.678Z,13.50
2022-11-17T07:59:54.373Z,17.70
2022-11-17T08:02:41.326Z,13.33
2022-11-17T08:05:30.661Z,20.27
2022-11-17T08:08:17.569Z,18.20
2022-11-17T08:11:06.029Z,19.50
2022-11-17T08:13:52.842Z,18.33
2022-11-17T08:16:39.756Z,18.47
2022-11-17T08:19:26.574Z,15.13
2022-11-17T08:22:13.388Z,16.37
2022-11-17T08:25:00.273Z,20.27
2022-11-17T08:27:51.966Z,20.83
2022-11-17T08:30:38.812Z,18.03
2022-11-17T08:33:25.287Z,19.80
2022-11-17T08:36:12.162Z,18.77
2022-11-17T08:38:59.016Z,18.43
2022-11-17T08:41:45.687Z,18.33
2022-11-17T08:44:33.943Z,18.97
2022-11-17T08:47:20.441Z,17.97
2022-11-17T08:50:08.316Z,15.67
2022-11-17T08:52:55.099Z,19.40
2022-11-17T08:55:42.515Z,17.13
2022-11-17T08:58:29.516Z,18.63
2022-11-17T09:01:18.174Z,18.17
2022-11-17T09:04:05.927Z,18.77
2022-11-17T09:06:52.655Z,15.87
2022-11-17T09:09:39.512Z,17.17
2022-11-17T09:12:26.299Z,20.47
2022-11-17T09:15:13.409Z,15.30
2022-11-17T09:18:03.226Z,18.30
2022-11-17T09:20:49.899Z,16.00
2022-11-17T09:23:37.278Z,18.00
2022-11-17T09:26:24.447Z,19.57
2022-11-17T09:29:11.559Z,17.50
2022-11-17T09:31:58.388Z,17.17
2022-11-17T09:34:46.505Z,17.37
2022-11-17T09:37:33.275Z,17.50
2022-11-17T09:40:21.139Z,18.43
2022-11-17T09:43:21.487Z,16.00
2022-11-17T09:46:18.934Z,17.47
2022-11-17T09:49:13.733Z,18.20
2022-11-17T09:52:08.740Z,16.57
2022-11-17T09:54:57.707Z,16.30
2022-11-17T09:57:50.973Z,17.50
2022-11-17T10:00:44.120Z,17.57
2022-11-17T10:03:33.430Z,17.03
2022-11-17T10:06:22.700Z,15.63
2022-11-17T10:09:24.185Z,15.00
2022-11-17T10:12:17.725Z,13.83
2022-11-17T10:15:22.245Z,10.47
2022-11-17T10:18:20.634Z,15.90
2022-11-17T10:21:14.893Z,14.53
2022-11-17T10:27:33.279Z,14.33
2022-11-17T10:30:44.677Z,16.00
2022-11-17T10:33:50.189Z,12.20
2022-11-17T10:37:08.329Z,12.57
2022-11-17T10:40:25.860Z,12.50
2022-11-17T10:43:44.143Z,10.20
2022-11-17T10:47:02.014Z,14.60
2022-11-17T10:50:24.418Z,12.63
2022-11-17T10:53:27.178Z,17.30
2022-11-17T10:56:20.494Z,12.47
2022-11-17T10:59:18.135Z,11.83
2022-11-17T11:02:28.644Z,15.37
2022-11-17T11:05:18.360Z,11.87
2022-11-17T11:08:19.759Z,13.97
2022-11-17T11:11:13.900Z,13.07
2022-11-17T11:14:13.488Z,11.60
2022-11-17T11:17:10.846Z,12.33
2022-11-17T11:19:58.935Z,10.30
2022-11-17T11:22:51.321Z,11.20
2022-11-17T11:25:45.748Z,10.93
2022-11-17T11:28:47.976Z,12.10
2022-11-17T11:31:50.570Z,9.30
2022-11-17T11:35:05.063Z,12.50
2022-11-17T11:38:00.397Z,8.07
2022-11-17T11:41:11.305Z,10.10
2022-11-17T11:44:17.389Z,9.80
2022-11-17T11:47:10.631Z,7.90
2022-11-17T11:50:03.914Z,11.77
2022-11-17T11:52:55.543Z,8.43
2022-11-17T11:55:45.158Z,10.57
2022-11-17T11:58:31.972Z,11.87
2022-11-17T12:01:21.572Z,13.47
2022-11-17T12:04:16.484Z,12.00
2022-11-17T12:07:14.765Z,11.73
2022-11-17T12:10:06.170Z,12.27
2022-11-17T12:12:52.890Z,10.40
2022-11-17T12:15:39.606Z,9.90
2022-11-17T12:18:35.499Z,8.33
2022-11-17T12:21:25.152Z,11.13
2022-11-17T12:24:18.498Z,9.23
2022-11-17T12:27:32.813Z,12.80
2022-11-17T12:30:56.379Z,9.70
2022-11-17T12:34:20.006Z,10.10
2022-11-17T12:37:23.114Z,16.50
2022-11-17T12:40:45.507Z,11.17
2022-11-17T12:43:32.501Z,11.17
2022-11-17T12:46:27.858Z,13.60
2022-11-17T12:49:29.126Z,9.03
2022-11-17T12:52:27.855Z,12.97
2022-11-17T12:55:26.501Z,11.83
2022-11-17T12:58:30.954Z,13.93
2022-11-17T13:01:41.740Z,14.47
2022-11-17T13:04:36.772Z,13.60
2022-11-17T13:07:27.946Z,11.53
2022-11-17T13:10:26.315Z,11.07
2022-11-17T13:13:16.961Z,11.07
2022-11-17T13:16:05.828Z,15.73
2022-11-17T13:18:52.481Z,11.27
2022-11-17T13:21:39.246Z,14.10
2022-11-17T13:24:31.726Z,12.13
2022-11-17T13:27:23.895Z,12.23
2022-11-17T13:30:17.040Z,9.67
2022-11-17T13:33:11.862Z,10.97
2022-11-17T13:36:08.267Z,11.17
2022-11-17T13:38:57.411Z,14.97
2022-11-17T13:41:44.319Z,11.97
2022-11-17T13:44:33.466Z,15.93
2022-11-17T13:47:21.176Z,15.73
2022-11-17T13:50:34.164Z,13.80
2022-11-17T13:53:26.728Z,12.23
2022-11-17T13:56:27.698Z,12.90
2022-11-17T13:59:27.736Z,12.27
2022-11-17T14:02:25.911Z,16.73
2022-11-17T14:05:26.081Z,9.60
2022-11-17T14:08:22.571Z,14.47
2022-11-17T14:11:28.739Z,12.53
2022-11-17T14:14:21.642Z,10.67
2022-11-17T14:17:13.848Z,13.53
2022-11-17T14:20:30.996Z,13.53
2022-11-17T14:23:19.590Z,16.33
2022-11-17T14:26:07.253Z,13.93
2022-11-17T14:28:55.285Z,13.00
2022-11-17T14:31:41.833Z,12.90
2022-11-17T14:34:28.656Z,13.47
2022-11-17T14:37:15.556Z,15.70
2022-11-17T14:40:05.901Z,15.13
2022-11-17T14:42:52.480Z,17.47
2022-11-17T14:45:39.387Z,15.27
2022-11-17T14:48:26.657Z,17.63
2022-11-17T14:51:15.695Z,19.83
2022-11-17T14:54:03.096Z,14.63
2022-11-17T14:56:51.232Z,13.40
2022-11-17T14:59:37.991Z,12.13
2022-11-17T15:02:24.531Z,15.47
2022-11-17T15:05:11.998Z,19.90
2022-11-17T15:07:58.503Z,19.43
2022-11-17T15:10:46.611Z,19.97
2022-11-17T15:13:34.529Z,16.03
2022-11-17T15:16:21.349Z,16.77
2022-11-17T15:19:08.155Z,19.40
2022-11-17T15:21:54.973Z,19.13
2022-11-17T15:24:42.404Z,17.20
2022-11-17T15:27:28.855Z,19.17
2022-11-17T15:30:18.138Z,17.10
2022-11-17T15:33:04.972Z,17.27
2022-11-17T15:36:01.485Z,19.00
2022-11-17T15:38:48.706Z,20.63
2022-11-17T15:41:35.268Z,20.23
2022-11-17T15:44:22.062Z,17.40
2022-11-17T15:47:10.279Z,19.47
2022-11-17T15:49:58.680Z,21.63
2022-11-17T15:55:51.562Z,19.57
2022-11-17T15:58:39.089Z,22.37
2022-11-17T16:01:30.414Z,17.37
2022-11-17T16:04:18.405Z,18.20
2022-11-17T16:07:05.381Z,20.60
2022-11-17T16:09:52.279Z,19.33
2022-11-17T16:12:39.225Z,20.33
2022-11-17T16:15:26.017Z,20.30
2022-11-17T16:18:12.471Z,20.57
2022-11-17T16:21:05.363Z,20.77
2022-11-17T16:23:54.749Z,19.13
2022-11-17T16:26:41.661Z,28.57
2022-11-17T16:29:28.382Z,20.70
2022-11-17T16:32:15.120Z,17.93
2022-11-17T16:35:02.194Z,20.47
2022-11-17T16:37:52.118Z,16.90
2022-11-17T16:40:39.878Z,24.00
2022-11-17T16:43:26.279Z,26.40
2022-11-17T16:46:17.804Z,25.00
2022-11-17T16:49:06.565Z,20.33
2022-11-17T16:51:54.846Z,23.47
2022-11-17T16:54:42.912Z,21.40
2022-11-17T16:57:30.850Z,20.30
2022-11-17T17:00:18.503Z,24.47
2022-11-17T17:03:05.441Z,24.10
2022-11-17T17:05:52.156Z,24.53
2022-11-17T17:08:38.823Z,22.83
2022-11-17T17:11:27.438Z,21.87
2022-11-17T17:14:15.647Z,20.80
2022-11-17T17:17:02.379Z,26.80
2022-11-17T17:19:49.318Z,23.33
2022-11-17T17:22:35.933Z,27.33
2022-11-17T17:25:22.767Z,22.63
2022-11-17T17:28:10.827Z,22.73
2022-11-17T17:30:57.569Z,24.87
2022-11-17T17:33:44.875Z,27.27
2022-11-17T17:36:32.235Z,26.80
2022-11-17T17:39:19.242Z,24.50
2022-11-17T17:42:06.210Z,25.87
2022-11-17T17:44:54.431Z,27.03
2022-11-17T17:47:41.362Z,20.13
2022-11-17T17:50:28.198Z,23.10
2022-11-17T17:53:14.896Z,18.83
2022-11-17T17:56:02.164Z,18.23
2022-11-17T17:58:51.998Z,18.90
2022-11-17T18:01:42.367Z,19.37
2022-11-17T18:04:29.844Z,20.97
2022-11-17T18:07:17.489Z,18.13
2022-11-17T18:10:05.073Z,20.87
2022-11-17T18:12:52.426Z,23.67
2022-11-17T18:15:41.680Z,17.90
2022-11-17T18:18:29.975Z,17.97
2022-11-17T18:21:19.222Z,20.30
2022-11-17T18:24:06.632Z,17.50
2022-11-17T18:26:53.806Z,12.93
2022-11-17T18:29:40.851Z,17.93
2022-11-17T18:32:28.313Z,15.47
2022-11-17T18:35:17.020Z,20.00
2022-11-17T18:38:04.484Z,16.13
2022-11-17T18:40:53.477Z,12.70
2022-11-17T18:43:44.453Z,12.40
2022-11-17T18:46:32.491Z,14.20
2022-11-17T18:49:19.555Z,19.63
2022-11-17T18:52:07.886Z,13.33
2022-11-17T18:54:54.703Z,14.70
2022-11-17T18:57:44.896Z,17.03
2022-11-17T19:00:31.578Z,11.57
2022-11-17T19:03:19.474Z,16.17
2022-11-17T19:06:07.460Z,19.17
2022-11-17T19:08:55.706Z,16.97
2022-11-17T19:11:42.190Z,17.20
2022-11-17T19:14:28.973Z,16.77
2022-11-17T19:17:15.687Z,18.67
2022-11-17T19:20:02.531Z,10.43
2022-11-17T19:22:49.097Z,15.10
2022-11-17T19:25:39.302Z,15.80
2022-11-17T19:28:25.987Z,15.77
2022-11-17T19:31:15.461Z,13.00
2022-11-17T19:34:02.076Z,19.33
2022-11-17T19:36:51.407Z,16.67
2022-11-17T19:39:38.080Z,18.00
2022-11-17T19:42:26.119Z,14.03
2022-11-17T19:45:12.989Z,20.93
2022-11-17T19:48:01.038Z,19.43
2022-11-17T19:50:51.620Z,19.63
2022-11-17T19:53:41.261Z,18.43
2022-11-17T19:56:28.841Z,14.83
2022-11-17T19:59:17.152Z,8.53
2022-11-17T20:02:05.498Z,19.97
2022-11-17T20:04:52.193Z,17.30
2022-11-17T20:07:39.389Z,17.83
2022-11-17T20:10:25.857Z,18.07
2022-11-17T20:13:12.444Z,16.13
2022-11-17T20:16:02.848Z,12.00
2022-11-17T20:18:52.041Z,18.20
2022-11-17T20:21:38.623Z,16.00
2022-11-17T20:24:25.496Z,15.23
2022-11-17T20:27:12.002Z,23.43
2022-11-17T20:29:58.870Z,17.87
2022-11-17T20:32:46.952Z,24.17
2022-11-17T20:35:38.008Z,20.33
2022-11-17T20:38:26.277Z,17.50
2022-11-17T20:41:13.099Z,14.13
2022-11-17T20:44:01.993Z,14.30
2022-11-17T20:46:48.496Z,15.37
2022-11-17T20:49:37.274Z,19.50
2022-11-17T20:52:24.046Z,15.00
2022-11-17T20:55:10.902Z,16.50
2022-11-17T20:57:57.614Z,15.90
2022-11-17T21:00:45.385Z,20.73
2022-11-17T21:03:32.200Z,16.87
2022-11-17T21:06:23.150Z,19.50
2022-11-17T21:09:10.011Z,21.03
2022-11-17T21:12:00.095Z,17.20
2022-11-17T21:14:47.013Z,23.13
2022-11-17T21:17:52.245Z,19.60
2022-11-17T21:20:38.894Z,19.80
2022-11-17T21:23:27.089Z,22.27
2022-11-17T21:26:17.138Z,17.13
2022-11-17T21:29:06.643Z,20.03
2022-11-17T21:31:53.770Z,19.93
2022-11-17T21:34:40.515Z,13.53
2022-11-17T21:37:28.081Z,15.37
2022-11-17T21:40:16.141Z,25.20
2022-11-17T21:43:02.857Z,17.80
2022-11-17T21:45:49.587Z,16.73
2022-11-17T21:48:37.674Z,16.33
2022-11-17T21:51:25.988Z,21.13
2022-11-17T21:54:12.469Z,14.90
2022-11-17T21:57:00.588Z,23.63
2022-11-17T21:59:47.755Z,23.10
2022-11-17T22:02:34.099Z,18.13
2022-11-17T22:05:22.248Z,16.67
2022-11-17T22:08:09.031Z,24.93
2022-11-17T22:10:55.863Z,23.97
2022-11-17T22:13:44.118Z,22.27
2022-11-17T22:16:30.609Z,22.33
2022-11-17T22:19:19.286Z,24.40
2022-11-17T22:22:07.710Z,23.60
2022-11-17T22:24:54.446Z,23.73
2022-11-17T22:27:41.352Z,22.37
2022-11-17T22:30:29.532Z,26.30
2022-11-17T22:33:16.473Z,17.20
2022-11-17T22:36:03.922Z,25.70
2022-11-17T22:38:52.126Z,18.37
2022-11-17T22:41:38.876Z,24.50
2022-11-17T22:44:25.834Z,20.17
2022-11-17T22:47:13.576Z,24.23
2022-11-17T22:50:00.526Z,19.43
2022-11-17T22:52:47.304Z,20.83
2022-11-17T22:55:34.584Z,17.23
2022-11-17T22:58:21.337Z,18.73
2022-11-17T23:01:08.855Z,26.73
2022-11-17T23:03:57.092Z,22.50
2022-11-17T23:06:44.112Z,20.17
2022-11-17T23:09:30.923Z,19.47
2022-11-17T23:12:17.721Z,17.03
2022-11-17T23:15:04.936Z,20.73
2022-11-17T23:17:51.874Z,24.73
2022-11-17T23:20:40.411Z,26.77
2022-11-17T23:23:27.132Z,19.23
2022-11-17T23:26:14.349Z,22.80
2022-11-17T23:29:01.118Z,23.57
2022-11-17T23:31:47.977Z,26.17
2022-11-17T23:34:34.860Z,18.67
2022-11-17T23:37:23.842Z,23.33
2022-11-17T23:40:11.708Z,22.10
2022-11-17T23:42:58.131Z,16.63
2022-11-17T23:45:45.588Z,19.93
2022-11-17T23:48:32.162Z,22.57
2022-11-17T23:51:21.232Z,24.67
2022-11-17T23:54:12.404Z,23.60
2022-11-17T23:56:59.156Z,20.53
2022-11-17T23:59:45.691Z,27.30
